createdAt,value
2022-08-04T00:02:10.443Z,43.30
2022-08-04T00:04:44.869Z,43.40
2022-08-04T00:07:16.682Z,43.50
2022-08-04T00:09:53.467Z,43.70
2022-08-04T00:12:21.085Z,43.70
2022-08-04T00:15:00.857Z,43.70
2022-08-04T00:17:33.122Z,43.80
2022-08-04T00:20:02.169Z,43.90
2022-08-04T00:22:30.523Z,43.80
2022-08-04T00:24:58.585Z,43.80
2022-08-04T00:27:25.382Z,43.90
2022-08-04T00:29:53.004Z,43.90
2022-08-04T00:32:34.152Z,44.00
2022-08-04T00:35:01.853Z,44.10
2022-08-04T00:37:28.786Z,44.20
2022-08-04T00:39:56.094Z,44.30
2022-08-04T00:43:13.363Z,44.40
2022-08-04T00:46:17.501Z,44.60
2022-08-04T00:49:33.776Z,44.60
2022-08-04T00:52:31.393Z,44.60
2022-08-04T00:55:06.916Z,44.60
2022-08-04T00:57:43.675Z,44.60
2022-08-04T01:00:13.103Z,44.60
2022-08-04T01:02:51.044Z,44.70
2022-08-04T01:05:28.116Z,44.80
2022-08-04T01:08:19.299Z,44.80
2022-08-04T01:10:57.998Z,44.90
2022-08-04T01:13:42.075Z,45.20
2022-08-04T01:16:11.366Z,45.00
2022-08-04T01:18:53.194Z,45.10
2022-08-04T01:21:29.388Z,45.20
2022-08-04T01:24:24.923Z,45.20
2022-08-04T01:27:22.515Z,45.20
2022-08-04T01:29:51.047Z,45.20
2022-08-04T01:32:35.589Z,45.10
2022-08-04T01:35:15.405Z,45.10
2022-08-04T01:38:21.675Z,45.20
2022-08-04T01:40:52.826Z,45.10
2022-08-04T01:43:20.860Z,45.00
2022-08-04T01:45:55.653Z,45.20
2022-08-04T01:48:25.029Z,45.10
2022-08-04T01:50:58.127Z,45.10
2022-08-04T01:53:34.056Z,45.10
2022-08-04T01:56:05.443Z,45.00
2022-08-04T01:58:33.971Z,45.00
2022-08-04T02:01:05.071Z,44.90
2022-08-04T02:04:22.029Z,45.00
2022-08-04T02:06:33.261Z,45.00
2022-08-04T02:09:05.956Z,44.90
2022-08-04T02:11:32.763Z,44.90
2022-08-04T02:14:12.667Z,44.90
2022-08-04T02:16:52.387Z,44.90
2022-08-04T02:19:59.898Z,44.80
2022-08-04T02:22:27.562Z,44.90
2022-08-04T02:25:13.014Z,44.80
2022-08-04T02:27:59.670Z,44.80
2022-08-04T02:30:34.348Z,44.80
2022-08-04T02:33:03.632Z,44.80
2022-08-04T02:35:36.370Z,44.70
2022-08-04T02:38:25.646Z,44.70
2022-08-04T02:40:56.465Z,44.80
2022-08-04T02:43:51.547Z,44.70
2022-08-04T02:46:17.987Z,44.70
2022-08-04T02:48:47.659Z,44.70
2022-08-04T02:51:16.005Z,44.70
2022-08-04T02:53:44.115Z,44.80
2022-08-04T02:56:12.087Z,44.70
2022-08-04T02:58:40.218Z,44.80
2022-08-04T03:01:06.969Z,44.80
2022-08-04T03:03:52.177Z,44.80
2022-08-04T03:06:28.964Z,44.80
2022-08-04T03:09:14.088Z,44.80
2022-08-04T03:12:07.076Z,44.80
2022-08-04T03:15:04.309Z,44.80
2022-08-04T03:17:52.828Z,44.90
2022-08-04T03:20:41.901Z,44.90
2022-08-04T03:23:30.763Z,45.00
2022-08-04T03:26:34.501Z,45.10
2022-08-04T03:29:37.451Z,45.10
2022-08-04T03:32:26.496Z,45.00
2022-08-04T03:35:09.929Z,45.10
2022-08-04T03:38:03.451Z,45.30
2022-08-04T03:40:45.376Z,45.20
2022-08-04T03:43:58.367Z,45.30
2022-08-04T03:46:23.371Z,45.30
2022-08-04T03:49:21.247Z,45.30
2022-08-04T03:52:32.017Z,45.20
2022-08-04T03:55:35.101Z,45.30
2022-08-04T03:58:35.973Z,45.40
2022-08-04T04:01:23.911Z,45.40
2022-08-04T04:03:53.473Z,45.40
2022-08-04T04:06:38.786Z,45.30
2022-08-04T04:09:32.096Z,45.40
2022-08-04T04:12:40.499Z,45.50
2022-08-04T04:15:30.589Z,45.60
2022-08-04T04:18:11.968Z,45.50
2022-08-04T04:21:06.447Z,45.60
2022-08-04T04:23:56.127Z,45.70
2022-08-04T04:26:54.716Z,45.60
2022-08-04T04:29:36.452Z,45.60
2022-08-04T04:32:15.451Z,45.60
2022-08-04T04:35:01.101Z,45.50
2022-08-04T04:37:30.843Z,45.60
2022-08-04T04:40:22.320Z,45.60
2022-08-04T04:43:10.417Z,45.60
2022-08-04T04:46:05.865Z,45.50
2022-08-04T04:48:51.850Z,45.50
2022-08-04T04:51:50.632Z,45.30
2022-08-04T04:54:25.430Z,45.30
2022-08-04T04:57:10.737Z,45.20
2022-08-04T04:59:41.460Z,45.10
2022-08-04T05:02:17.203Z,45.00
2022-08-04T05:05:08.874Z,45.00
2022-08-04T05:08:43.542Z,45.00
2022-08-04T05:11:04.896Z,44.90
2022-08-04T05:14:35.951Z,44.70
2022-08-04T05:16:41.833Z,44.70
2022-08-04T05:19:34.814Z,44.60
2022-08-04T05:22:14.678Z,44.60
2022-08-04T05:24:44.925Z,44.60
2022-08-04T05:27:19.711Z,44.60
2022-08-04T05:29:51.972Z,44.50
2022-08-04T05:32:23.946Z,44.50
2022-08-04T05:34:58.916Z,44.60
2022-08-04T05:37:28.383Z,44.60
2022-08-04T05:39:59.342Z,44.50
2022-08-04T05:42:26.871Z,44.50
2022-08-04T05:44:54.569Z,44.60
2022-08-04T05:47:22.497Z,44.50
2022-08-04T05:49:55.548Z,44.60
2022-08-04T05:52:30.315Z,44.50
2022-08-04T05:54:57.526Z,44.40
2022-08-04T05:57:25.122Z,44.40
2022-08-04T05:59:52.498Z,44.50
2022-08-04T06:02:20.030Z,44.40
2022-08-04T06:04:50.116Z,44.40
2022-08-04T06:07:17.383Z,44.40
2022-08-04T06:09:44.588Z,44.30
2022-08-04T06:12:25.656Z,44.30
2022-08-04T06:14:54.939Z,44.20
2022-08-04T06:18:33.309Z,44.30
2022-08-04T06:20:23.265Z,44.20
2022-08-04T06:22:55.793Z,44.10
2022-08-04T06:25:34.009Z,43.90
2022-08-04T06:28:02.163Z,43.90
2022-08-04T06:30:31.007Z,43.70
2022-08-04T06:33:03.997Z,43.60
2022-08-04T06:35:32.193Z,44.10
2022-08-04T06:38:01.230Z,44.10
2022-08-04T06:40:30.983Z,44.20
2022-08-04T06:43:01.242Z,44.00
2022-08-04T06:45:28.305Z,44.20
2022-08-04T06:47:55.171Z,44.30
2022-08-04T06:51:29.474Z,44.30
2022-08-04T06:53:09.683Z,44.20
2022-08-04T06:55:37.535Z,44.20
2022-08-04T06:58:05.244Z,44.30
2022-08-04T07:00:32.712Z,44.00
2022-08-04T07:02:59.815Z,44.10
2022-08-04T07:05:28.018Z,44.30
2022-08-04T07:07:57.399Z,44.00
2022-08-04T07:10:28.817Z,43.70
2022-08-04T07:12:57.540Z,43.80
2022-08-04T07:15:24.974Z,43.70
2022-08-04T07:17:52.503Z,43.60
2022-08-04T07:20:34.454Z,43.50
2022-08-04T07:23:04.370Z,43.40
2022-08-04T07:26:01.190Z,43.20
2022-08-04T07:28:19.936Z,43.00
2022-08-04T07:30:48.807Z,42.80
2022-08-04T07:33:19.222Z,42.60
2022-08-04T07:36:09.765Z,42.90
2022-08-04T07:38:37.819Z,42.40
2022-08-04T07:41:36.489Z,42.30
2022-08-04T07:44:03.849Z,41.80
2022-08-04T07:46:31.500Z,41.90
2022-08-04T07:49:00.629Z,41.60
2022-08-04T07:51:28.592Z,41.80
2022-08-04T07:53:56.813Z,41.30
2022-08-04T07:56:23.836Z,40.80
2022-08-04T07:58:50.739Z,41.00
2022-08-04T08:01:19.029Z,41.20
2022-08-04T08:03:46.596Z,41.30
2022-08-04T08:06:17.508Z,41.10
2022-08-04T08:09:13.357Z,41.00
2022-08-04T08:12:35.712Z,41.00
2022-08-04T08:14:35.457Z,40.80
2022-08-04T08:17:03.274Z,40.70
2022-08-04T08:19:31.312Z,40.40
2022-08-04T08:22:00.783Z,40.50
2022-08-04T08:24:34.176Z,40.20
2022-08-04T08:27:04.384Z,39.90
2022-08-04T08:29:34.304Z,40.00
2022-08-04T08:32:07.853Z,39.60
2022-08-04T08:34:36.063Z,39.70
2022-08-04T08:37:14.040Z,39.70
2022-08-04T08:40:10.953Z,39.60
2022-08-04T08:42:40.462Z,39.40
2022-08-04T08:45:39.304Z,39.10
2022-08-04T08:48:40.423Z,38.70
2022-08-04T08:51:37.105Z,38.70
2022-08-04T08:54:35.098Z,38.60
2022-08-04T08:57:43.889Z,38.70
2022-08-04T09:00:33.928Z,38.00
2022-08-04T09:03:37.798Z,37.90
2022-08-04T09:06:38.781Z,38.00
2022-08-04T09:09:45.458Z,37.80
2022-08-04T09:12:25.561Z,38.10
2022-08-04T09:15:05.642Z,38.10
2022-08-04T09:18:19.942Z,38.10
2022-08-04T09:21:26.295Z,37.90
2022-08-04T09:24:35.054Z,37.80
2022-08-04T09:27:08.631Z,38.00
2022-08-04T09:30:00.212Z,38.00
2022-08-04T09:32:42.177Z,37.20
2022-08-04T09:35:46.618Z,37.20
2022-08-04T09:38:21.244Z,37.20
2022-08-04T09:40:53.399Z,37.40
2022-08-04T09:44:49.905Z,37.90
2022-08-04T09:47:09.169Z,38.10
2022-08-04T09:49:40.777Z,37.80
2022-08-04T09:52:33.127Z,37.50
2022-08-04T09:55:09.451Z,37.40
2022-08-04T09:57:46.472Z,37.50
2022-08-04T10:00:16.791Z,37.40
2022-08-04T10:02:51.293Z,37.40
2022-08-04T10:05:41.108Z,37.20
2022-08-04T10:08:30.246Z,36.70
2022-08-04T10:11:08.209Z,36.70
2022-08-04T10:13:57.683Z,37.20
2022-08-04T10:16:30.200Z,37.00
2022-08-04T10:19:26.335Z,37.00
2022-08-04T10:22:28.664Z,36.30
2022-08-04T10:26:04.321Z,36.40
2022-08-04T10:28:06.889Z,36.80
2022-08-04T10:30:36.837Z,35.30
2022-08-04T10:33:18.788Z,34.60
2022-08-04T10:35:49.468Z,35.10
2022-08-04T10:38:22.948Z,35.50
2022-08-04T10:41:21.952Z,35.00
2022-08-04T10:44:10.547Z,33.50
2022-08-04T10:46:46.942Z,34.40
2022-08-04T10:49:34.354Z,34.60
2022-08-04T10:52:33.775Z,34.40
2022-08-04T10:55:06.576Z,34.20
2022-08-04T10:57:41.018Z,35.20
2022-08-04T11:00:14.741Z,35.20
2022-08-04T11:02:52.629Z,33.40
2022-08-04T11:05:47.309Z,34.40
2022-08-04T11:08:24.739Z,34.40
2022-08-04T11:11:22.684Z,34.60
2022-08-04T11:14:16.701Z,34.30
2022-08-04T11:16:46.844Z,34.50
2022-08-04T11:20:07.478Z,34.70
2022-08-04T11:23:11.262Z,35.10
2022-08-04T11:25:56.678Z,35.00
2022-08-04T11:28:39.878Z,34.30
2022-08-04T11:31:36.513Z,34.00
2022-08-04T11:34:22.504Z,33.90
2022-08-04T11:37:14.035Z,34.70
2022-08-04T11:39:50.785Z,34.80
2022-08-04T11:42:28.672Z,35.20
2022-08-04T11:45:07.462Z,34.90
2022-08-04T11:48:07.258Z,34.60
2022-08-04T11:50:41.587Z,34.50
2022-08-04T11:53:09.550Z,34.40
2022-08-04T11:56:08.241Z,35.40
2022-08-04T11:58:25.834Z,35.40
2022-08-04T12:01:04.360Z,35.00
2022-08-04T12:04:07.671Z,34.40
2022-08-04T12:07:28.888Z,33.00
2022-08-04T12:10:41.632Z,32.80
2022-08-04T12:13:21.269Z,32.60
2022-08-04T12:16:18.494Z,32.60
2022-08-04T12:18:52.657Z,32.50
2022-08-04T12:21:29.677Z,32.40
2022-08-04T12:24:02.262Z,32.80
2022-08-04T12:26:34.951Z,32.50
2022-08-04T12:29:11.159Z,32.50
2022-08-04T12:31:45.724Z,32.80
2022-08-04T12:34:46.381Z,33.20
2022-08-04T12:37:22.277Z,32.30
2022-08-04T12:40:29.188Z,31.90
2022-08-04T12:42:59.730Z,32.00
2022-08-04T12:45:27.382Z,31.70
2022-08-04T12:47:57.700Z,31.40
2022-08-04T12:50:24.836Z,31.20
2022-08-04T12:53:03.359Z,32.00
2022-08-04T12:55:33.578Z,32.70
2022-08-04T12:58:02.259Z,33.20
2022-08-04T13:00:40.642Z,33.10
2022-08-04T13:03:16.548Z,32.90
2022-08-04T13:05:44.147Z,32.50
2022-08-04T13:08:11.977Z,32.30
2022-08-04T13:10:44.606Z,33.10
2022-08-04T13:13:20.302Z,33.60
2022-08-04T13:16:01.011Z,32.90
2022-08-04T13:18:33.266Z,32.30
2022-08-04T13:21:21.052Z,32.60
2022-08-04T13:24:10.588Z,31.80
2022-08-04T13:27:03.848Z,31.90
2022-08-04T13:30:00.715Z,32.00
2022-08-04T13:32:25.567Z,32.30
2022-08-04T13:34:54.488Z,31.80
2022-08-04T13:37:26.956Z,31.60
2022-08-04T13:39:55.906Z,31.70
2022-08-04T13:42:25.136Z,31.90
2022-08-04T13:44:55.209Z,32.00
2022-08-04T13:47:34.224Z,32.00
2022-08-04T13:50:12.445Z,31.70
2022-08-04T13:52:41.284Z,32.00
2022-08-04T13:55:19.157Z,32.00
2022-08-04T13:57:47.526Z,32.20
2022-08-04T14:00:16.895Z,32.40
2022-08-04T14:03:03.273Z,31.80
2022-08-04T14:05:58.730Z,31.80
2022-08-04T14:08:26.702Z,31.60
2022-08-04T14:10:57.653Z,32.00
2022-08-04T14:13:41.524Z,32.10
2022-08-04T14:16:19.827Z,32.20
2022-08-04T14:18:47.222Z,32.20
2022-08-04T14:21:18.227Z,31.90
2022-08-04T14:23:48.134Z,31.90
2022-08-04T14:26:16.358Z,32.20
2022-08-04T14:29:25.545Z,31.80
2022-08-04T14:31:31.148Z,32.10
2022-08-04T14:34:01.404Z,31.90
2022-08-04T14:36:56.021Z,32.00
2022-08-04T14:39:40.911Z,32.00
2022-08-04T14:42:08.248Z,32.00
2022-08-04T14:44:54.355Z,32.20
2022-08-04T14:47:52.031Z,32.20
2022-08-04T14:50:20.161Z,32.10
2022-08-04T14:52:46.983Z,32.40
2022-08-04T14:55:24.857Z,32.60
2022-08-04T14:58:35.637Z,32.00
2022-08-04T15:00:39.390Z,31.90
2022-08-04T15:03:08.831Z,31.90
2022-08-04T15:06:02.440Z,31.80
2022-08-04T15:08:31.110Z,31.90
2022-08-04T15:11:02.267Z,32.20
2022-08-04T15:13:33.190Z,32.30
2022-08-04T15:16:07.208Z,32.30
2022-08-04T15:18:39.386Z,32.00
2022-08-04T15:21:07.983Z,32.00
2022-08-04T15:23:38.903Z,31.40
2022-08-04T15:26:09.661Z,32.10
2022-08-04T15:28:37.692Z,32.10
2022-08-04T15:32:01.682Z,32.10
2022-08-04T15:33:55.169Z,31.50
2022-08-04T15:36:31.943Z,31.80
2022-08-04T15:38:58.681Z,31.60
2022-08-04T15:42:03.417Z,31.50
2022-08-04T15:44:51.774Z,31.80
2022-08-04T15:47:18.861Z,31.90
2022-08-04T15:49:45.813Z,32.00
2022-08-04T15:52:16.664Z,31.60
2022-08-04T15:54:52.642Z,31.70
2022-08-04T15:57:59.482Z,31.90
2022-08-04T16:00:26.664Z,31.90
2022-08-04T16:02:53.660Z,31.70
2022-08-04T16:05:20.388Z,32.00
2022-08-04T16:07:57.674Z,32.00
2022-08-04T16:10:36.239Z,31.80
2022-08-04T16:13:13.921Z,32.10
2022-08-04T16:15:52.559Z,31.80
2022-08-04T16:18:27.248Z,31.70
2022-08-04T16:21:04.020Z,31.40
2022-08-04T16:24:06.480Z,30.80
2022-08-04T16:26:46.353Z,28.70
2022-08-04T16:29:28.026Z,29.40
2022-08-04T16:32:11.001Z,29.10
2022-08-04T16:34:53.788Z,29.00
2022-08-04T16:37:42.606Z,29.00
2022-08-04T16:40:39.714Z,28.60
2022-08-04T16:43:17.782Z,28.60
2022-08-04T16:45:53.102Z,28.90
2022-08-04T16:48:27.940Z,28.80
2022-08-04T16:50:56.378Z,29.30
2022-08-04T16:54:04.215Z,28.90
2022-08-04T16:56:18.702Z,28.90
2022-08-04T16:58:53.124Z,28.80
2022-08-04T17:01:21.868Z,29.10
2022-08-04T17:04:04.821Z,29.30
2022-08-04T17:06:40.922Z,28.90
2022-08-04T17:09:13.293Z,29.00
2022-08-04T17:11:41.733Z,28.80
2022-08-04T17:14:08.860Z,29.00
2022-08-04T17:16:38.324Z,28.60
2022-08-04T17:19:07.198Z,28.80
2022-08-04T17:21:47.699Z,28.80
2022-08-04T17:24:17.845Z,28.90
2022-08-04T17:26:53.802Z,28.60
2022-08-04T17:29:42.844Z,29.10
2022-08-04T17:32:16.355Z,29.30
2022-08-04T17:34:47.539Z,28.80
2022-08-04T17:40:13.516Z,28.40
2022-08-04T17:42:40.555Z,28.10
2022-08-04T17:47:57.728Z,28.00
2022-08-04T17:50:26.113Z,28.00
2022-08-04T17:53:11.577Z,28.10
2022-08-04T17:55:43.714Z,27.90
2022-08-04T17:58:21.165Z,27.90
2022-08-04T18:00:51.272Z,27.90
2022-08-04T18:03:23.711Z,28.00
2022-08-04T18:06:03.225Z,28.30
2022-08-04T18:08:40.856Z,28.50
2022-08-04T18:11:18.883Z,28.60
2022-08-04T18:13:54.124Z,28.70
2022-08-04T18:16:24.122Z,28.80
2022-08-04T18:19:13.733Z,28.80
2022-08-04T18:21:45.545Z,28.80
2022-08-04T18:24:14.040Z,29.00
2022-08-04T18:26:41.915Z,28.90
2022-08-04T18:29:31.089Z,28.90
2022-08-04T18:31:58.824Z,29.00
2022-08-04T18:34:27.188Z,29.10
2022-08-04T18:36:57.430Z,29.40
2022-08-04T18:40:10.132Z,29.60
2022-08-04T18:42:15.180Z,29.90
2022-08-04T18:44:52.239Z,30.30
2022-08-04T18:47:23.166Z,30.50
2022-08-04T18:50:59.628Z,30.80
2022-08-04T18:52:45.111Z,31.10
2022-08-04T18:55:51.611Z,31.30
2022-08-04T18:58:01.485Z,31.50
2022-08-04T19:00:32.966Z,31.60
2022-08-04T19:03:01.353Z,31.80
2022-08-04T19:05:38.233Z,31.80
2022-08-04T19:08:32.575Z,32.10
2022-08-04T19:10:59.842Z,32.10
2022-08-04T19:13:27.837Z,32.10
2022-08-04T19:15:54.694Z,32.20
2022-08-04T19:18:26.037Z,32.30
2022-08-04T19:20:55.112Z,32.30
2022-08-04T19:24:28.420Z,32.30
2022-08-04T19:26:17.929Z,32.40
2022-08-04T19:28:55.152Z,32.40
2022-08-04T19:31:28.201Z,32.40
2022-08-04T19:34:05.086Z,32.30
2022-08-04T19:36:34.673Z,32.30
2022-08-04T19:39:11.308Z,32.20
2022-08-04T19:42:04.298Z,32.30
2022-08-04T19:48:21.474Z,32.30
2022-08-04T19:50:04.697Z,32.30
2022-08-04T19:52:37.279Z,32.30
2022-08-04T19:57:53.061Z,32.30
2022-08-04T20:00:33.921Z,33.00
2022-08-04T20:03:02.694Z,32.30
2022-08-04T20:05:52.749Z,32.40
2022-08-04T20:08:16.737Z,32.30
2022-08-04T20:10:47.072Z,32.40
2022-08-04T20:13:19.830Z,32.30
2022-08-04T20:15:57.578Z,32.20
2022-08-04T20:21:19.474Z,32.20
2022-08-04T20:23:52.224Z,32.10
2022-08-04T20:26:19.317Z,32.10
2022-08-04T20:28:51.919Z,32.20
2022-08-04T20:31:19.528Z,32.10
2022-08-04T20:33:49.064Z,32.00
2022-08-04T20:36:20.392Z,32.00
2022-08-04T20:38:51.987Z,32.00
2022-08-04T20:41:22.423Z,32.00
2022-08-04T20:43:50.079Z,32.10
2022-08-04T20:46:29.086Z,32.00
2022-08-04T20:48:57.376Z,32.00
2022-08-04T20:51:31.862Z,32.10
2022-08-04T20:54:01.173Z,32.00
2022-08-04T20:59:17.071Z,31.90
2022-08-04T21:01:45.392Z,31.90
2022-08-04T21:04:34.426Z,31.80
2022-08-04T21:07:09.396Z,31.70
2022-08-04T21:09:49.839Z,31.70
2022-08-04T21:12:26.837Z,31.80
2022-08-04T21:15:01.189Z,31.60
2022-08-04T21:17:58.930Z,31.60
2022-08-04T21:20:27.883Z,31.60
2022-08-04T21:22:54.950Z,31.60
2022-08-04T21:25:22.358Z,31.60
2022-08-04T21:27:49.718Z,31.60
2022-08-04T21:30:25.368Z,31.60
2022-08-04T21:32:54.873Z,31.70
2022-08-04T21:35:30.086Z,31.70
2022-08-04T21:38:16.460Z,31.70
2022-08-04T21:40:54.611Z,31.80
2022-08-04T21:43:23.645Z,31.90
2022-08-04T21:45:54.597Z,31.80
2022-08-04T21:48:21.615Z,31.90
2022-08-04T21:50:50.465Z,31.80
2022-08-04T21:53:19.799Z,31.70
2022-08-04T21:56:06.414Z,31.70
2022-08-04T21:58:34.522Z,31.70
2022-08-04T22:01:01.485Z,31.60
2022-08-04T22:03:52.890Z,31.70
2022-08-04T22:06:28.310Z,31.60
2022-08-04T22:08:56.624Z,31.60
2022-08-04T22:11:48.538Z,31.60
2022-08-04T22:14:27.229Z,31.80
2022-08-04T22:16:57.159Z,31.70
2022-08-04T22:19:39.561Z,31.60
2022-08-04T22:22:12.605Z,31.70
2022-08-04T22:24:41.479Z,31.70
2022-08-04T22:27:37.653Z,31.80
2022-08-04T22:30:13.447Z,31.90
2022-08-04T22:32:47.235Z,31.90
2022-08-04T22:35:35.524Z,31.90
2022-08-04T22:38:07.433Z,32.20
2022-08-04T22:40:50.028Z,32.20
2022-08-04T22:43:32.358Z,32.40
2022-08-04T22:46:01.836Z,32.70
2022-08-04T22:48:29.072Z,32.70
2022-08-04T22:50:59.791Z,33.00
2022-08-04T22:53:26.583Z,33.20
2022-08-04T22:56:06.415Z,33.40
2022-08-04T22:58:36.613Z,33.50
2022-08-04T23:01:08.059Z,33.80
2022-08-04T23:03:37.204Z,33.90
2022-08-04T23:06:11.026Z,34.10
2022-08-04T23:08:43.192Z,34.40
2022-08-04T23:11:13.527Z,34.40
2022-08-04T23:13:41.756Z,34.50
2022-08-04T23:16:10.485Z,34.70
2022-08-04T23:18:41.949Z,34.80
2022-08-04T23:21:10.057Z,35.00
2022-08-04T23:23:45.228Z,35.20
2022-08-04T23:26:22.261Z,36.00
2022-08-04T23:28:55.462Z,35.40
2022-08-04T23:31:22.419Z,35.40
2022-08-04T23:33:51.372Z,35.60
2022-08-04T23:36:29.429Z,35.40
2022-08-04T23:39:04.182Z,35.70
2022-08-04T23:41:54.759Z,35.90
2022-08-04T23:44:24.950Z,35.90
2022-08-04T23:46:58.083Z,35.40
2022-08-04T23:49:25.099Z,35.40
2022-08-04T23:52:09.115Z,35.40
2022-08-04T23:54:42.994Z,35.40
2022-08-04T23:57:17.329Z,35.30
2022-08-04T23:59:51.867Z,35.40
